createdAt,value
2022-12-11T00:01:21.542Z,100.00
2022-12-11T00:03:50.657Z,100.00
2022-12-11T00:06:23.594Z,100.00
2022-12-11T00:08:55.115Z,100.00
2022-12-11T00:11:24.205Z,100.00
2022-12-11T00:13:53.149Z,100.00
2022-12-11T00:16:26.731Z,100.00
2022-12-11T00:18:55.970Z,100.00
2022-12-11T00:21:24.685Z,100.00
2022-12-11T00:23:53.663Z,100.00
2022-12-11T00:26:22.640Z,100.00
2022-12-11T00:28:57.340Z,100.00
2022-12-11T00:31:26.182Z,100.00
2022-12-11T00:33:54.834Z,100.00
2022-12-11T00:36:26.630Z,100.00
2022-12-11T00:38:55.618Z,100.00
2022-12-11T00:41:24.499Z,100.00
2022-12-11T00:43:53.199Z,100.00
2022-12-11T00:46:22.032Z,100.00
2022-12-11T00:48:51.189Z,100.00
2022-12-11T00:51:20.380Z,100.00
2022-12-11T00:53:49.137Z,100.00
2022-12-11T00:56:22.316Z,100.00
2022-12-11T00:58:51.168Z,100.00
2022-12-11T01:01:24.435Z,100.00
2022-12-11T01:03:54.374Z,100.00
2022-12-11T01:06:26.528Z,100.00
2022-12-11T01:09:15.005Z,100.00
2022-12-11T01:11:44.228Z,100.00
2022-12-11T01:14:14.525Z,100.00
2022-12-11T01:16:43.224Z,100.00
2022-12-11T01:19:11.985Z,100.00
2022-12-11T01:23:14.285Z,100.00
2022-12-11T01:25:43.628Z,100.00
2022-12-11T01:28:12.347Z,100.00
2022-12-11T01:30:44.045Z,100.00
2022-12-11T01:33:12.756Z,100.00
2022-12-11T01:35:41.517Z,100.00
2022-12-11T01:38:10.740Z,100.00
2022-12-11T01:40:39.432Z,100.00
2022-12-11T01:43:12.208Z,100.00
2022-12-11T01:45:47.840Z,100.00
2022-12-11T01:48:28.865Z,100.00
2022-12-11T01:51:03.156Z,100.00
2022-12-11T01:53:40.107Z,100.00
2022-12-11T01:56:10.552Z,100.00
2022-12-11T01:58:52.752Z,100.00
2022-12-11T02:01:34.025Z,100.00
2022-12-11T02:04:03.455Z,100.00
2022-12-11T02:07:02.039Z,100.00
2022-12-11T02:09:37.991Z,100.00
2022-12-11T02:12:34.632Z,100.00
2022-12-11T02:15:33.832Z,100.00
2022-12-11T02:18:30.391Z,100.00
2022-12-11T02:21:10.533Z,100.00
2022-12-11T02:24:20.714Z,100.00
2022-12-11T02:27:10.740Z,100.00
2022-12-11T02:30:11.173Z,100.00
2022-12-11T02:32:58.621Z,100.00
2022-12-11T02:35:55.443Z,100.00
2022-12-11T02:38:34.267Z,100.00
2022-12-11T02:41:05.924Z,100.00
2022-12-11T02:43:36.596Z,100.00
2022-12-11T02:46:15.610Z,100.00
2022-12-11T02:48:47.184Z,100.00
2022-12-11T02:51:20.804Z,100.00
2022-12-11T02:53:54.228Z,100.00
2022-12-11T02:56:41.075Z,100.00
2022-12-11T02:59:16.445Z,100.00
2022-12-11T03:01:46.677Z,100.00
2022-12-11T03:04:15.559Z,100.00
2022-12-11T03:06:50.579Z,100.00
2022-12-11T03:09:21.417Z,100.00
2022-12-11T03:11:50.186Z,100.00
2022-12-11T03:14:19.305Z,100.00
2022-12-11T03:17:16.894Z,100.00
2022-12-11T03:20:30.681Z,100.00
2022-12-11T03:23:14.254Z,100.00
2022-12-11T03:25:58.884Z,100.00
2022-12-11T03:28:49.819Z,100.00
2022-12-11T03:31:33.679Z,100.00
2022-12-11T03:34:08.841Z,100.00
2022-12-11T03:36:39.646Z,100.00
2022-12-11T03:39:37.361Z,100.00
2022-12-11T03:42:10.601Z,100.00
2022-12-11T03:44:40.810Z,100.00
2022-12-11T03:47:10.864Z,100.00
2022-12-11T03:49:43.851Z,100.00
2022-12-11T03:52:16.026Z,100.00
2022-12-11T03:54:49.749Z,100.00
2022-12-11T03:57:25.357Z,100.00
2022-12-11T03:59:53.914Z,100.00
2022-12-11T04:02:22.640Z,100.00
2022-12-11T04:04:51.430Z,100.00
2022-12-11T04:07:20.110Z,100.00
2022-12-11T04:09:48.856Z,100.00
2022-12-11T04:12:17.623Z,100.00
2022-12-11T04:15:04.659Z,100.00
2022-12-11T04:17:55.482Z,100.00
2022-12-11T04:20:42.507Z,100.00
2022-12-11T04:23:34.836Z,100.00
2022-12-11T04:26:15.995Z,100.00
2022-12-11T04:28:46.514Z,100.00
2022-12-11T04:31:22.349Z,100.00
2022-12-11T04:33:51.113Z,100.00
2022-12-11T04:36:19.839Z,100.00
2022-12-11T04:38:48.552Z,100.00
2022-12-11T04:41:18.119Z,100.00
2022-12-11T04:43:46.672Z,100.00
2022-12-11T04:46:22.320Z,100.00
2022-12-11T04:48:57.429Z,100.00
2022-12-11T04:51:28.828Z,100.00
2022-12-11T04:53:59.727Z,100.00
2022-12-11T04:56:28.441Z,100.00
2022-12-11T04:58:57.211Z,100.00
2022-12-11T05:01:25.981Z,100.00
2022-12-11T05:03:54.682Z,100.00
2022-12-11T05:06:23.288Z,100.00
2022-12-11T05:08:51.983Z,100.00
2022-12-11T05:11:22.549Z,100.00
2022-12-11T05:13:52.314Z,100.00
2022-12-11T05:16:21.118Z,100.00
2022-12-11T05:18:49.852Z,100.00
2022-12-11T05:21:18.585Z,100.00
2022-12-11T05:23:47.234Z,100.00
2022-12-11T05:26:20.121Z,100.00
2022-12-11T05:28:54.493Z,100.00
2022-12-11T05:31:28.342Z,100.00
2022-12-11T05:33:57.135Z,100.00
2022-12-11T05:36:30.588Z,100.00
2022-12-11T05:39:00.903Z,100.00
2022-12-11T05:41:31.680Z,100.00
2022-12-11T05:44:00.473Z,100.00
2022-12-11T05:46:31.413Z,100.00
2022-12-11T05:49:02.655Z,100.00
2022-12-11T05:51:34.556Z,100.00
2022-12-11T05:54:04.022Z,100.00
2022-12-11T05:56:34.725Z,100.00
2022-12-11T05:59:05.594Z,100.00
2022-12-11T06:01:43.400Z,100.00
2022-12-11T06:04:12.775Z,100.00
2022-12-11T06:06:44.099Z,100.00
2022-12-11T06:09:17.574Z,100.00
2022-12-11T06:11:46.205Z,100.00
2022-12-11T06:14:14.885Z,100.00
2022-12-11T06:16:43.559Z,100.00
2022-12-11T06:19:18.232Z,100.00
2022-12-11T06:21:49.200Z,100.00
2022-12-11T06:24:17.864Z,100.00
2022-12-11T06:26:46.559Z,100.00
2022-12-11T06:29:15.389Z,100.00
2022-12-11T06:31:44.191Z,100.00
2022-12-11T06:34:14.193Z,100.00
2022-12-11T06:36:42.965Z,100.00
2022-12-11T06:39:12.558Z,100.00
2022-12-11T06:41:41.359Z,100.00
2022-12-11T06:44:10.047Z,100.00
2022-12-11T06:46:38.652Z,100.00
2022-12-11T06:49:07.222Z,100.00
2022-12-11T06:51:35.816Z,100.00
2022-12-11T06:54:04.704Z,100.00
2022-12-11T06:56:36.674Z,100.00
2022-12-11T06:59:07.558Z,100.00
2022-12-11T07:01:36.506Z,100.00
2022-12-11T07:04:05.338Z,100.00
2022-12-11T07:06:33.999Z,100.00
2022-12-11T07:09:05.850Z,100.00
2022-12-11T07:11:34.565Z,100.00
2022-12-11T07:14:03.695Z,100.00
2022-12-11T07:16:32.456Z,100.00
2022-12-11T07:19:01.190Z,100.00
2022-12-11T07:21:29.989Z,100.00
2022-12-11T07:23:59.217Z,100.00
2022-12-11T07:26:27.910Z,100.00
2022-12-11T07:29:00.808Z,100.00
2022-12-11T07:31:30.756Z,100.00
2022-12-11T07:34:06.568Z,100.00
2022-12-11T07:36:35.846Z,100.00
2022-12-11T07:39:04.772Z,100.00
2022-12-11T07:41:33.475Z,100.00
2022-12-11T07:44:03.987Z,100.00
2022-12-11T07:46:34.631Z,100.00
2022-12-11T07:49:06.161Z,100.00
2022-12-11T07:51:37.838Z,100.00
2022-12-11T07:54:16.920Z,100.00
2022-12-11T07:56:53.172Z,100.00
2022-12-11T07:59:22.610Z,100.00
2022-12-11T08:01:51.341Z,100.00
2022-12-11T08:04:20.076Z,100.00
2022-12-11T08:06:48.817Z,100.00
2022-12-11T08:09:22.811Z,100.00
2022-12-11T08:11:51.866Z,100.00
2022-12-11T08:14:21.201Z,100.00
2022-12-11T08:16:50.187Z,100.00
2022-12-11T08:19:19.483Z,100.00
2022-12-11T08:21:48.304Z,100.00
2022-12-11T08:24:20.451Z,100.00
2022-12-11T08:26:49.258Z,100.00
2022-12-11T08:29:18.075Z,100.00
2022-12-11T08:31:46.776Z,100.00
2022-12-11T08:34:16.546Z,100.00
2022-12-11T08:36:45.287Z,100.00
2022-12-11T08:39:13.983Z,100.00
2022-12-11T08:41:42.643Z,100.00
2022-12-11T08:44:16.649Z,100.00
2022-12-11T08:46:46.200Z,100.00
2022-12-11T08:49:14.926Z,100.00
2022-12-11T08:51:43.572Z,100.00
2022-12-11T08:54:12.349Z,100.00
2022-12-11T08:56:41.159Z,100.00
2022-12-11T08:59:13.325Z,100.00
2022-12-11T09:01:42.229Z,100.00
2022-12-11T09:04:10.877Z,100.00
2022-12-11T09:06:39.724Z,100.00
2022-12-11T09:09:08.419Z,100.00
2022-12-11T09:11:38.247Z,100.00
2022-12-11T09:14:08.416Z,100.00
2022-12-11T09:16:40.988Z,100.00
2022-12-11T09:19:15.089Z,100.00
2022-12-11T09:21:47.444Z,100.00
2022-12-11T09:24:16.306Z,100.00
2022-12-11T09:26:45.047Z,100.00
2022-12-11T09:29:13.970Z,100.00
2022-12-11T09:31:42.969Z,100.00
2022-12-11T09:34:13.434Z,100.00
2022-12-11T09:36:44.502Z,100.00
2022-12-11T09:39:15.516Z,100.00
2022-12-11T09:41:51.940Z,100.00
2022-12-11T09:44:49.890Z,100.00
2022-12-11T09:47:25.652Z,100.00
2022-12-11T09:50:07.280Z,100.00
2022-12-11T09:53:12.182Z,100.00
2022-12-11T09:56:48.117Z,100.00
2022-12-11T09:59:25.961Z,100.00
2022-12-11T10:02:37.965Z,100.00
2022-12-11T10:05:21.886Z,100.00
2022-12-11T10:08:21.430Z,100.00
2022-12-11T10:11:20.853Z,100.00
2022-12-11T10:14:03.339Z,100.00
2022-12-11T10:16:51.232Z,100.00
2022-12-11T10:19:29.270Z,100.00
2022-12-11T10:22:00.633Z,100.00
2022-12-11T10:25:15.320Z,100.00
2022-12-11T10:27:45.423Z,100.00
2022-12-11T10:30:20.230Z,100.00
2022-12-11T10:32:59.481Z,100.00
2022-12-11T10:35:52.244Z,100.00
2022-12-11T10:38:53.470Z,100.00
2022-12-11T10:41:34.149Z,100.00
2022-12-11T10:44:15.790Z,100.00
2022-12-11T10:46:45.852Z,100.00
2022-12-11T10:49:28.657Z,100.00
2022-12-11T10:52:01.712Z,100.00
2022-12-11T10:54:44.164Z,100.00
2022-12-11T10:57:15.559Z,100.00
2022-12-11T10:59:46.814Z,100.00
2022-12-11T11:02:35.037Z,100.00
2022-12-11T11:05:30.608Z,100.00
2022-12-11T11:08:13.881Z,100.00
2022-12-11T11:10:53.267Z,100.00
2022-12-11T11:13:25.440Z,100.00
2022-12-11T11:16:12.700Z,100.00
2022-12-11T11:21:55.428Z,100.00
2022-12-11T11:24:56.140Z,100.00
2022-12-11T11:27:44.373Z,100.00
2022-12-11T11:31:17.139Z,100.00
2022-12-11T11:34:06.105Z,100.00
2022-12-11T11:36:40.849Z,100.00
2022-12-11T11:39:29.538Z,100.00
2022-12-11T11:42:32.826Z,100.00
2022-12-11T11:45:44.468Z,100.00
2022-12-11T11:48:46.927Z,100.00
2022-12-11T11:51:34.858Z,100.00
2022-12-11T11:54:55.883Z,100.00
2022-12-11T11:57:39.312Z,100.00
2022-12-11T12:00:20.901Z,100.00
2022-12-11T12:02:54.897Z,100.00
2022-12-11T12:06:04.785Z,100.00
2022-12-11T12:09:04.483Z,100.00
2022-12-11T12:11:49.706Z,100.00
2022-12-11T12:15:20.445Z,100.00
2022-12-11T12:18:05.498Z,100.00
2022-12-11T12:21:00.604Z,100.00
2022-12-11T12:24:00.590Z,100.00
2022-12-11T12:26:37.618Z,100.00
2022-12-11T12:29:33.682Z,100.00
2022-12-11T12:32:37.707Z,100.00
2022-12-11T12:35:37.867Z,100.00
2022-12-11T12:38:13.016Z,100.00
2022-12-11T12:40:50.619Z,100.00
2022-12-11T12:44:06.683Z,100.00
2022-12-11T12:46:51.906Z,99.56
2022-12-11T12:49:37.622Z,100.00
2022-12-11T12:52:33.039Z,97.18
2022-12-11T12:55:14.195Z,95.58
2022-12-11T12:57:55.294Z,91.07
2022-12-11T13:00:44.597Z,95.26
2022-12-11T13:03:27.814Z,92.35
2022-12-11T13:06:08.181Z,88.13
2022-12-11T13:08:50.172Z,86.99
2022-12-11T13:11:22.345Z,88.04
2022-12-11T13:14:16.394Z,86.72
2022-12-11T13:17:22.444Z,88.72
2022-12-11T13:20:03.947Z,91.77
2022-12-11T13:22:32.622Z,94.05
2022-12-11T13:25:22.334Z,95.26
2022-12-11T13:27:51.581Z,96.37
2022-12-11T13:30:20.250Z,98.25
2022-12-11T13:33:18.190Z,99.64
2022-12-11T13:35:48.092Z,100.00
2022-12-11T13:38:21.034Z,100.00
2022-12-11T13:40:57.402Z,100.00
2022-12-11T13:43:33.747Z,100.00
2022-12-11T13:46:10.887Z,100.00
2022-12-11T13:48:57.337Z,100.00
2022-12-11T13:51:29.208Z,100.00
2022-12-11T13:54:17.268Z,100.00
2022-12-11T13:57:18.425Z,100.00
2022-12-11T13:59:54.851Z,100.00
2022-12-11T14:02:32.850Z,100.00
2022-12-11T14:05:12.689Z,100.00
2022-12-11T14:07:48.894Z,100.00
2022-12-11T14:10:31.645Z,100.00
2022-12-11T14:13:06.440Z,100.00
2022-12-11T14:15:37.308Z,100.00
2022-12-11T14:18:06.439Z,100.00
2022-12-11T14:20:35.309Z,100.00
2022-12-11T14:23:19.693Z,100.00
2022-12-11T14:26:02.457Z,100.00
2022-12-11T14:28:41.542Z,100.00
2022-12-11T14:31:18.398Z,100.00
2022-12-11T14:33:54.131Z,100.00
2022-12-11T14:36:23.626Z,100.00
2022-12-11T14:39:04.965Z,100.00
2022-12-11T14:41:50.045Z,100.00
2022-12-11T14:44:23.867Z,100.00
2022-12-11T14:47:10.703Z,100.00
2022-12-11T14:49:48.284Z,100.00
2022-12-11T14:52:22.494Z,100.00
2022-12-11T14:55:20.043Z,100.00
2022-12-11T14:57:52.054Z,100.00
2022-12-11T15:00:35.979Z,100.00
2022-12-11T15:03:06.709Z,100.00
2022-12-11T15:05:40.519Z,100.00
2022-12-11T15:08:13.006Z,100.00
2022-12-11T15:11:01.629Z,100.00
2022-12-11T15:13:32.203Z,100.00
2022-12-11T15:16:01.519Z,100.00
2022-12-11T15:18:38.595Z,100.00
2022-12-11T15:21:11.769Z,100.00
2022-12-11T15:23:52.803Z,100.00
2022-12-11T15:26:37.490Z,100.00
2022-12-11T15:29:26.942Z,100.00
2022-12-11T15:32:24.431Z,100.00
2022-12-11T15:34:59.938Z,100.00
2022-12-11T15:37:33.132Z,100.00
2022-12-11T15:40:05.075Z,100.00
2022-12-11T15:42:41.995Z,100.00
2022-12-11T15:45:24.152Z,100.00
2022-12-11T15:47:53.474Z,100.00
2022-12-11T15:50:28.867Z,100.00
2022-12-11T15:52:58.066Z,100.00
2022-12-11T15:55:35.352Z,100.00
2022-12-11T15:58:09.650Z,100.00
2022-12-11T16:00:38.437Z,100.00
2022-12-11T16:03:07.075Z,100.00
2022-12-11T16:05:36.010Z,100.00
2022-12-11T16:08:05.506Z,100.00
2022-12-11T16:10:34.220Z,100.00
2022-12-11T16:13:03.041Z,100.00
2022-12-11T16:15:31.955Z,100.00
2022-12-11T16:18:08.318Z,100.00
2022-12-11T16:20:38.487Z,100.00
2022-12-11T16:23:08.599Z,100.00
2022-12-11T16:25:39.673Z,100.00
2022-12-11T16:28:10.892Z,100.00
2022-12-11T16:30:40.247Z,100.00
2022-12-11T16:33:12.949Z,100.00
2022-12-11T16:36:29.886Z,100.00
2022-12-11T16:38:58.783Z,100.00
2022-12-11T16:41:27.429Z,100.00
2022-12-11T16:43:56.213Z,100.00
2022-12-11T16:46:29.840Z,100.00
2022-12-11T16:48:58.538Z,100.00
2022-12-11T16:51:27.216Z,100.00
2022-12-11T16:53:56.134Z,100.00
2022-12-11T16:56:25.657Z,100.00
2022-12-11T17:06:51.627Z,100.00
2022-12-11T17:10:45.228Z,99.85
2022-12-11T17:13:58.889Z,98.21
2022-12-11T17:16:45.014Z,97.41
2022-12-11T17:20:30.894Z,95.81
2022-12-11T17:23:02.888Z,95.06
2022-12-11T17:48:09.225Z,94.90
2022-12-11T17:50:43.760Z,94.38
2022-12-11T18:14:23.682Z,96.25
2022-12-11T18:16:53.206Z,95.88
2022-12-11T18:19:30.799Z,96.19
2022-12-11T18:22:00.968Z,96.11
2022-12-11T18:24:34.067Z,95.71
2022-12-11T18:27:13.847Z,95.94
2022-12-11T18:30:25.756Z,96.52
2022-12-11T18:37:35.124Z,97.73
2022-12-11T18:40:06.035Z,98.70
2022-12-11T18:42:35.248Z,96.86
2022-12-11T18:45:05.450Z,95.78
2022-12-11T18:47:34.315Z,95.85
2022-12-11T18:50:20.282Z,96.60
2022-12-11T18:53:07.290Z,97.04
2022-12-11T18:55:41.175Z,98.29
2022-12-11T18:58:11.802Z,98.29
2022-12-11T19:13:17.396Z,99.81
2022-12-11T19:20:49.194Z,99.78
2022-12-11T19:35:48.797Z,100.00
2022-12-11T19:46:46.167Z,100.00
2022-12-11T19:50:39.374Z,100.00
2022-12-11T19:53:30.233Z,100.00
2022-12-11T19:56:32.862Z,100.00
2022-12-11T20:04:18.381Z,100.00
2022-12-11T20:07:31.175Z,100.00
2022-12-11T20:13:57.100Z,100.00
2022-12-11T20:25:26.731Z,99.66
2022-12-11T20:27:59.476Z,99.93
2022-12-11T20:31:13.678Z,100.00
2022-12-11T20:33:57.887Z,100.00
2022-12-11T20:36:27.216Z,100.00
2022-12-11T20:38:56.363Z,100.00
2022-12-11T20:41:26.820Z,100.00
2022-12-11T20:43:56.137Z,100.00
2022-12-11T20:46:27.698Z,100.00
2022-12-11T20:49:03.452Z,100.00
2022-12-11T20:51:36.333Z,100.00
2022-12-11T20:54:08.350Z,100.00
2022-12-11T20:56:38.152Z,100.00
2022-12-11T20:59:07.174Z,100.00
2022-12-11T21:01:35.952Z,100.00
2022-12-11T21:04:04.908Z,100.00
2022-12-11T21:06:36.565Z,100.00
2022-12-11T21:09:13.984Z,100.00
2022-12-11T21:11:42.747Z,100.00
2022-12-11T21:14:11.487Z,100.00
2022-12-11T21:16:40.963Z,100.00
2022-12-11T21:19:16.505Z,100.00
2022-12-11T21:21:50.982Z,100.00
2022-12-11T21:24:26.683Z,100.00
2022-12-11T21:26:58.296Z,100.00
2022-12-11T21:29:30.364Z,100.00
2022-12-11T21:31:59.619Z,100.00
2022-12-11T21:34:28.556Z,100.00
2022-12-11T21:36:58.371Z,100.00
2022-12-11T21:39:28.761Z,100.00
2022-12-11T21:41:58.315Z,100.00
2022-12-11T21:47:16.707Z,100.00
2022-12-11T21:49:45.349Z,100.00
2022-12-11T21:52:14.647Z,100.00
2022-12-11T21:54:43.453Z,100.00
2022-12-11T21:57:13.045Z,100.00
2022-12-11T21:59:41.771Z,100.00
2022-12-11T22:02:12.451Z,100.00
2022-12-11T22:04:42.364Z,100.00
2022-12-11T22:07:11.089Z,100.00
2022-12-11T22:09:40.227Z,100.00
2022-12-11T22:12:20.538Z,100.00
2022-12-11T22:14:49.457Z,100.00
2022-12-11T22:17:19.097Z,100.00
2022-12-11T22:19:48.254Z,100.00
2022-12-11T22:22:16.935Z,100.00
2022-12-11T22:24:45.866Z,100.00
2022-12-11T22:27:17.840Z,100.00
2022-12-11T22:29:49.202Z,100.00
2022-12-11T22:32:17.834Z,100.00
2022-12-11T22:34:46.548Z,100.00
2022-12-11T22:37:15.247Z,100.00
2022-12-11T22:39:43.955Z,100.00
2022-12-11T22:42:12.686Z,100.00
2022-12-11T22:44:41.614Z,100.00
2022-12-11T22:47:10.398Z,100.00
2022-12-11T22:49:39.212Z,100.00
2022-12-11T22:52:07.933Z,100.00
2022-12-11T22:54:42.856Z,100.00
2022-12-11T22:57:11.835Z,100.00
2022-12-11T22:59:41.704Z,100.00
2022-12-11T23:02:10.363Z,100.00
2022-12-11T23:04:40.382Z,100.00
2022-12-11T23:07:08.970Z,100.00
2022-12-11T23:09:37.663Z,100.00
2022-12-11T23:12:06.939Z,100.00
2022-12-11T23:14:35.836Z,100.00
2022-12-11T23:17:04.472Z,100.00
2022-12-11T23:19:33.217Z,100.00
2022-12-11T23:22:02.013Z,100.00
2022-12-11T23:24:30.655Z,100.00
2022-12-11T23:27:00.458Z,100.00
2022-12-11T23:29:29.184Z,100.00
2022-12-11T23:31:57.808Z,100.00
2022-12-11T23:34:26.490Z,100.00
2022-12-11T23:36:55.224Z,100.00
2022-12-11T23:39:23.962Z,100.00
2022-12-11T23:41:52.505Z,100.00
2022-12-11T23:44:21.168Z,100.00
2022-12-11T23:46:53.427Z,100.00
2022-12-11T23:49:23.288Z,100.00
2022-12-11T23:51:51.985Z,100.00
2022-12-11T23:54:20.666Z,100.00
2022-12-11T23:56:49.353Z,100.00
2022-12-11T23:59:18.292Z,100.00
